Aviation Digital Data Service (ADDS)

Output produced by METARs form (0208 UTC 26 April 2017)
found at http://www.aviationweather.gov/adds/metars/
 
KPAE 260153Z 12007KT 10SM -RA BKN055 OVC075 11/05 A2980 RMK AO2 RAB33 SLP092 P0000 T01110050
KPAE 252320Z 2600/2624 20008KT P6SM -RA OVC050 
     FM260600 16010KT P6SM -RA OVC040 
     FM261200 18012KT P6SM -SHRA BKN025 
     FM261800 27012KT P6SM -SHRA BKN035
       
KAWO 260155Z AUTO 19003KT 10SM OVC075 13/03 A2981 RMK AO1
KBFI 260153Z 24003KT 10SM -RA SCT033 BKN040 OVC060 12/08 A2980 RMK AO2 SLP092 P0001 T01220078
KBFI 252320Z 2600/2624 20008KT P6SM -RA OVC050 
     FM260600 16010KT P6SM -RA OVC040 
     FM261200 18012KT P6SM -SHRA BKN025 
     FM261800 21012KT P6SM VCSH BKN040
       
KRNT 260153Z 00000KT 10SM BKN038 OVC049 12/08 A2980 RMK AO2 RAB09E53 SLP095 P0000 T01220083
KSEA 260153Z 25006KT 10SM -RA FEW043 OVC055 12/06 A2980 RMK AO2 RAB10E11B46 SLP099 P0000 T01170061
KSEA 252320Z 2600/2706 20008KT P6SM -RA OVC050 
     FM260600 16010KT P6SM -RA OVC040 
     FM261200 18012KT P6SM -SHRA BKN025 
     FM261800 21012KT P6SM VCSH BKN040